Aviation Digital Data Service (ADDS)

Output produced by METARs form (0719 UTC 26 March 2017)
found at http://aviationweather.gov/adds/metars/
 
KLGA 260631Z 2607/2706 05010KT P6SM -DZ SCT015 OVC035 
     FM260900 05010KT P6SM FEW015 OVC035 
     FM261100 06011KT P6SM SCT025 OVC035 
     FM261300 06013KT 6SM -RA OVC025 
     FM262000 08012G17KT 5SM -RA BR SCT008 OVC015 
     FM270200 09012KT 3SM -DZ BR SCT004 OVC008